Stroby Egede, Denmark
Current Conditions -  °F | °C
As of 10:50 PM on Saturday 25 Oct 2014 (Local Time) from EKRK Reporting Station
Moderate Fog Moderate Fog  
Wind Chill: 45°   Ceiling: Unl
Heat Index: 48°   Visibility: 0.5mi
Dew Point: 48°   Wind: 7mph
Humidity: 100%   Direction: 230°SW
Pressure: 30.06"   Gusts: NA
Location:  55.41°N, 12.25°E
Report Text: EKRK 252050Z AUTO 23006KT 0800NDV R11/P1500N R29/P1500NFG FEW050/// 09/09 Q1018
Loading
Personal Weather Stations






























Interactive Weather Map
Tropical Storm Tracking
New forecast layout! Learn more

10-Day Weather Forecast

Advertisements
Track Severe Weather on mobile